createdAt,value
2019-05-28T00:01:17.657Z,30.00
2019-05-28T00:03:46.450Z,22.67
2019-05-28T00:06:14.810Z,24.03
2019-05-28T00:08:43.227Z,24.47
2019-05-28T00:11:11.654Z,20.17
2019-05-28T00:13:41.017Z,21.43
2019-05-28T00:16:10.225Z,24.00
2019-05-28T00:18:39.103Z,27.77
2019-05-28T00:21:07.967Z,27.10
2019-05-28T00:23:37.031Z,24.87
2019-05-28T00:26:05.459Z,25.87
2019-05-28T00:28:33.709Z,27.13
2019-05-28T00:31:02.174Z,23.90
2019-05-28T00:33:30.971Z,27.40
2019-05-28T00:35:59.161Z,32.30
2019-05-28T00:38:27.619Z,32.93
2019-05-28T00:40:56.256Z,37.27
2019-05-28T00:43:24.915Z,34.80
2019-05-28T00:45:53.115Z,37.47
2019-05-28T00:48:21.996Z,41.50
2019-05-28T00:50:50.984Z,41.73
2019-05-28T00:53:19.179Z,41.90
2019-05-28T00:55:48.062Z,40.63
2019-05-28T00:58:16.791Z,39.10
2019-05-28T01:00:46.599Z,39.17
2019-05-28T01:03:15.184Z,36.17
2019-05-28T01:05:43.593Z,35.97
2019-05-28T01:08:12.147Z,37.30
2019-05-28T01:10:40.406Z,36.63
2019-05-28T01:13:09.457Z,40.60
2019-05-28T01:15:39.255Z,40.50
2019-05-28T01:18:07.775Z,44.17
2019-05-28T01:20:37.200Z,39.53
2019-05-28T01:23:05.413Z,41.27
2019-05-28T01:25:34.300Z,39.17
2019-05-28T01:28:02.864Z,39.70
2019-05-28T01:30:31.742Z,36.50
2019-05-28T01:33:00.286Z,39.17
2019-05-28T01:35:28.520Z,31.33
2019-05-28T01:37:56.730Z,33.87
2019-05-28T01:40:25.470Z,33.60
2019-05-28T01:42:54.017Z,30.77
2019-05-28T01:45:23.033Z,27.13
2019-05-28T01:47:51.321Z,27.17
2019-05-28T01:50:19.638Z,25.90
2019-05-28T01:52:48.469Z,25.63
2019-05-28T01:55:17.359Z,24.97
2019-05-28T01:57:46.221Z,25.90
2019-05-28T02:00:14.882Z,28.37
2019-05-28T02:02:43.846Z,27.30
2019-05-28T02:05:12.622Z,31.20
2019-05-28T02:07:41.092Z,26.13
2019-05-28T02:10:09.877Z,24.07
2019-05-28T02:12:38.956Z,29.10
2019-05-28T02:15:07.822Z,24.50
2019-05-28T02:17:37.560Z,27.37
2019-05-28T02:20:07.263Z,24.13
2019-05-28T02:22:35.734Z,24.13
2019-05-28T02:25:05.943Z,25.63
2019-05-28T02:27:34.589Z,31.20
2019-05-28T02:30:03.525Z,30.83
2019-05-28T02:32:32.099Z,25.17
2019-05-28T02:35:00.472Z,23.70
2019-05-28T02:37:29.159Z,21.77
2019-05-28T02:39:57.777Z,24.03
2019-05-28T02:42:26.508Z,18.93
2019-05-28T02:44:55.356Z,19.60
2019-05-28T02:47:23.885Z,21.77
2019-05-28T02:49:52.083Z,22.00
2019-05-28T02:52:20.757Z,21.33
2019-05-28T02:54:49.768Z,21.20
2019-05-28T02:57:18.384Z,20.43
2019-05-28T02:59:46.776Z,19.33
2019-05-28T03:02:16.025Z,20.83
2019-05-28T03:04:44.578Z,34.20
2019-05-28T03:07:13.329Z,32.43
2019-05-28T03:09:41.936Z,26.07
2019-05-28T03:12:10.491Z,24.33
2019-05-28T03:14:38.834Z,26.07
2019-05-28T03:17:08.089Z,23.63
2019-05-28T03:19:37.286Z,25.97
2019-05-28T03:22:05.606Z,29.07
2019-05-28T03:24:34.184Z,36.40
2019-05-28T03:27:02.774Z,34.73
2019-05-28T03:29:31.053Z,26.77
2019-05-28T03:32:07.638Z,30.33
2019-05-28T03:34:31.358Z,28.10
2019-05-28T03:36:59.782Z,26.00
2019-05-28T03:39:28.323Z,25.07
2019-05-28T03:41:56.741Z,25.77
2019-05-28T03:44:25.925Z,31.53
2019-05-28T03:46:54.694Z,41.70
2019-05-28T03:49:23.413Z,49.67
2019-05-28T03:51:52.551Z,57.93
2019-05-28T03:54:21.804Z,58.97
2019-05-28T03:56:50.816Z,26.30
2019-05-28T03:59:20.256Z,27.57
2019-05-28T04:01:49.090Z,32.33
2019-05-28T04:04:17.545Z,29.37
2019-05-28T04:06:46.462Z,28.13
2019-05-28T04:09:14.937Z,25.40
2019-05-28T04:11:44.989Z,26.47
2019-05-28T04:14:14.121Z,25.10
2019-05-28T04:16:42.665Z,25.30
2019-05-28T04:19:11.520Z,24.10
2019-05-28T04:21:41.016Z,23.77
2019-05-28T04:24:09.510Z,26.77
2019-05-28T04:26:38.230Z,24.47
2019-05-28T04:29:06.968Z,26.17
2019-05-28T04:31:35.741Z,22.93
2019-05-28T04:34:04.327Z,22.97
2019-05-28T04:36:33.277Z,20.23
2019-05-28T04:39:02.326Z,27.97
2019-05-28T04:41:30.744Z,24.43
2019-05-28T04:43:59.200Z,24.03
2019-05-28T04:46:27.672Z,24.17
2019-05-28T04:48:56.350Z,21.30
2019-05-28T04:51:24.615Z,20.07
2019-05-28T04:53:53.408Z,19.00
2019-05-28T04:56:21.643Z,18.30
2019-05-28T04:58:50.108Z,19.27
2019-05-28T05:01:18.694Z,17.90
2019-05-28T05:03:47.280Z,18.20
2019-05-28T05:06:15.711Z,18.47
2019-05-28T05:08:44.130Z,16.00
2019-05-28T05:11:12.446Z,16.80
2019-05-28T05:13:43.546Z,17.37
2019-05-28T05:16:11.487Z,18.57
2019-05-28T05:18:39.920Z,17.60
2019-05-28T05:21:08.437Z,18.00
2019-05-28T05:23:38.326Z,15.60
2019-05-28T05:26:08.647Z,13.70
2019-05-28T05:28:36.810Z,14.43
2019-05-28T05:31:05.416Z,16.73
2019-05-28T05:33:34.416Z,11.63
2019-05-28T05:36:03.063Z,10.97
2019-05-28T05:38:31.749Z,10.30
2019-05-28T05:41:00.160Z,10.73
2019-05-28T05:43:28.644Z,10.53
2019-05-28T05:45:57.483Z,8.55
2019-05-28T05:48:26.219Z,9.30
2019-05-28T05:50:54.411Z,10.20
2019-05-28T05:53:22.757Z,9.23
2019-05-28T05:55:50.961Z,9.70
2019-05-28T05:58:19.811Z,11.13
2019-05-28T06:00:48.065Z,28.60
2019-05-28T06:03:17.692Z,27.87
2019-05-28T06:05:46.126Z,29.53
2019-05-28T06:08:14.571Z,24.43
2019-05-28T06:10:42.839Z,18.42
2019-05-28T06:13:11.657Z,17.30
2019-05-28T06:15:40.233Z,25.93
2019-05-28T06:18:09.050Z,61.90
2019-05-28T06:20:37.473Z,47.60
2019-05-28T06:23:05.726Z,12.13
2019-05-28T06:25:35.116Z,8.53
2019-05-28T06:28:03.743Z,7.03
2019-05-28T06:30:32.630Z,7.37
2019-05-28T06:33:00.848Z,7.03
2019-05-28T06:35:29.470Z,7.00
2019-05-28T06:37:57.955Z,6.78
2019-05-28T06:40:26.605Z,8.28
2019-05-28T06:42:54.870Z,8.38
2019-05-28T06:45:23.317Z,8.27
2019-05-28T06:47:52.511Z,8.25
2019-05-28T06:50:21.614Z,8.70
2019-05-28T06:52:50.170Z,8.85
2019-05-28T06:55:18.945Z,8.60
2019-05-28T06:57:47.182Z,8.38
2019-05-28T07:00:15.696Z,9.08
2019-05-28T07:02:44.050Z,9.10
2019-05-28T07:05:12.330Z,9.33
2019-05-28T07:07:40.597Z,8.13
2019-05-28T07:10:08.772Z,8.15
2019-05-28T07:12:37.281Z,8.30
2019-05-28T07:15:06.086Z,8.73
2019-05-28T07:17:34.464Z,7.42
2019-05-28T07:20:03.463Z,6.85
2019-05-28T07:22:31.705Z,7.08
2019-05-28T07:25:00.379Z,6.83
2019-05-28T07:27:29.801Z,7.45
2019-05-28T07:29:58.280Z,6.83
2019-05-28T07:32:27.289Z,7.47
2019-05-28T07:34:55.695Z,7.58
2019-05-28T07:37:24.256Z,7.62
2019-05-28T07:39:52.736Z,8.88
2019-05-28T07:42:32.375Z,8.58
2019-05-28T07:44:51.515Z,9.65
2019-05-28T07:47:19.999Z,10.18
2019-05-28T07:49:48.207Z,6.90
2019-05-28T07:52:16.725Z,7.10
2019-05-28T07:54:44.908Z,7.10
2019-05-28T07:57:13.326Z,7.17
2019-05-28T07:59:42.320Z,6.57
2019-05-28T08:02:10.671Z,7.60
2019-05-28T08:04:47.249Z,7.37
2019-05-28T08:09:44.064Z,7.67
2019-05-28T08:12:12.725Z,8.87
2019-05-28T08:14:41.330Z,7.60
2019-05-28T08:17:09.749Z,7.50
2019-05-28T08:19:38.453Z,8.30
2019-05-28T08:22:06.616Z,8.30
2019-05-28T08:24:34.968Z,8.20
2019-05-28T08:27:03.450Z,8.80
2019-05-28T08:29:32.782Z,8.40
2019-05-28T08:32:01.150Z,8.97
2019-05-28T08:34:29.724Z,9.28
2019-05-28T08:37:05.713Z,8.88
2019-05-28T08:39:33.231Z,9.20
2019-05-28T08:41:59.257Z,12.03
2019-05-28T08:44:27.496Z,10.13
2019-05-28T08:46:56.235Z,9.83
2019-05-28T08:49:24.796Z,7.43
2019-05-28T08:51:53.201Z,6.50
2019-05-28T08:54:21.726Z,7.00
2019-05-28T08:56:50.058Z,7.53
2019-05-28T08:59:18.308Z,8.20
2019-05-28T09:01:46.807Z,5.93
2019-05-28T09:04:15.185Z,6.30
2019-05-28T09:06:43.645Z,10.97
2019-05-28T09:09:12.146Z,8.57
2019-05-28T09:11:40.515Z,8.63
2019-05-28T09:14:08.987Z,8.90
2019-05-28T09:16:37.776Z,7.90
2019-05-28T09:19:06.042Z,7.62
2019-05-28T09:21:34.626Z,7.87
2019-05-28T09:24:03.095Z,9.40
2019-05-28T09:26:31.659Z,12.85
2019-05-28T09:29:01.504Z,8.58
2019-05-28T09:31:31.234Z,11.07
2019-05-28T09:33:59.741Z,10.30
2019-05-28T09:36:28.275Z,11.95
2019-05-28T09:38:56.888Z,16.42
2019-05-28T09:41:25.848Z,18.57
2019-05-28T09:43:54.159Z,16.50
2019-05-28T09:46:22.684Z,9.10
2019-05-28T09:48:51.323Z,8.60
2019-05-28T09:51:19.827Z,7.73
2019-05-28T09:53:48.651Z,9.30
2019-05-28T09:56:17.621Z,7.40
2019-05-28T09:58:46.045Z,8.15
2019-05-28T10:01:14.485Z,7.95
2019-05-28T10:03:42.739Z,7.95
2019-05-28T10:06:17.367Z,7.73
2019-05-28T10:08:42.589Z,7.37
2019-05-28T10:11:11.517Z,7.78
2019-05-28T10:13:41.769Z,7.15
2019-05-28T10:16:11.469Z,8.20
2019-05-28T10:18:39.871Z,8.60
2019-05-28T10:21:18.402Z,8.60
2019-05-28T10:23:38.621Z,9.23
2019-05-28T10:26:07.349Z,8.40
2019-05-28T10:28:36.274Z,6.60
2019-05-28T10:31:05.261Z,6.30
2019-05-28T10:33:34.839Z,6.50
2019-05-28T10:36:03.707Z,8.47
2019-05-28T10:38:32.067Z,9.40
2019-05-28T10:41:00.579Z,9.83
2019-05-28T10:43:29.332Z,8.27
2019-05-28T10:45:59.707Z,7.93
2019-05-28T10:48:28.260Z,9.30
2019-05-28T10:50:56.886Z,7.90
2019-05-28T10:53:25.267Z,8.47
2019-05-28T10:55:53.472Z,7.17
2019-05-28T10:58:22.100Z,6.97
2019-05-28T11:00:50.429Z,7.57
2019-05-28T11:03:18.779Z,7.20
2019-05-28T11:05:46.996Z,6.53
2019-05-28T11:08:16.323Z,6.20
2019-05-28T11:10:44.733Z,6.00
2019-05-28T11:13:13.584Z,6.60
2019-05-28T11:15:42.163Z,5.73
2019-05-28T11:18:10.915Z,6.40
2019-05-28T11:20:39.394Z,6.37
2019-05-28T11:23:08.187Z,6.30
2019-05-28T11:25:36.805Z,5.97
2019-05-28T11:28:05.394Z,5.90
2019-05-28T11:30:33.985Z,6.00
2019-05-28T11:33:02.673Z,6.70
2019-05-28T11:35:32.266Z,7.70
2019-05-28T11:38:00.724Z,8.55
2019-05-28T11:40:30.239Z,12.57
2019-05-28T11:42:59.091Z,7.33
2019-05-28T11:45:28.042Z,3.40
2019-05-28T11:47:56.582Z,4.08
2019-05-28T11:50:25.051Z,5.50
2019-05-28T11:52:53.514Z,4.37
2019-05-28T11:55:21.887Z,4.77
2019-05-28T11:57:50.984Z,4.70
2019-05-28T12:00:19.815Z,3.70
2019-05-28T12:02:48.428Z,4.40
2019-05-28T12:05:17.038Z,4.42
2019-05-28T12:07:45.323Z,4.20
2019-05-28T12:10:13.875Z,4.25
2019-05-28T12:12:42.429Z,4.37
2019-05-28T12:15:11.494Z,4.08
2019-05-28T12:17:43.185Z,3.70
2019-05-28T12:20:12.775Z,3.62
2019-05-28T12:22:41.446Z,3.80
2019-05-28T12:25:09.986Z,3.70
2019-05-28T12:27:38.167Z,3.60
2019-05-28T12:30:07.315Z,3.35
2019-05-28T12:32:35.896Z,3.70
2019-05-28T12:35:06.907Z,3.42
2019-05-28T12:37:47.786Z,2.58
2019-05-28T12:40:07.024Z,3.47
2019-05-28T12:42:35.769Z,2.60
2019-05-28T12:45:10.552Z,2.45
2019-05-28T12:47:39.340Z,2.47
2019-05-28T12:50:19.116Z,2.30
2019-05-28T12:52:38.495Z,1.90
2019-05-28T12:55:07.614Z,1.92
2019-05-28T12:57:35.967Z,2.15
2019-05-28T13:00:07.915Z,2.55
2019-05-28T13:02:36.619Z,21.65
2019-05-28T13:05:06.419Z,2.85
2019-05-28T13:07:35.189Z,2.83
2019-05-28T13:10:05.108Z,6.28
2019-05-28T13:12:33.345Z,1.77
2019-05-28T13:15:02.037Z,2.00
2019-05-28T13:17:30.235Z,1.67
2019-05-28T13:19:58.601Z,1.90
2019-05-28T13:22:26.846Z,1.92
2019-05-28T13:24:55.517Z,1.65
2019-05-28T13:27:24.208Z,1.72
2019-05-28T13:29:52.796Z,1.87
2019-05-28T13:32:21.713Z,1.98
2019-05-28T13:34:50.477Z,2.05
2019-05-28T13:37:19.133Z,2.10
2019-05-28T13:39:48.612Z,1.57
2019-05-28T13:42:17.017Z,1.45
2019-05-28T13:44:45.335Z,1.60
2019-05-28T13:47:32.145Z,1.95
2019-05-28T13:49:43.613Z,1.52
2019-05-28T13:52:12.882Z,1.80
2019-05-28T13:54:41.042Z,17.48
2019-05-28T13:57:09.384Z,1.40
2019-05-28T13:59:37.737Z,1.60
2019-05-28T14:02:05.940Z,1.80
2019-05-28T14:04:34.384Z,1.75
2019-05-28T14:07:03.342Z,1.70
2019-05-28T14:09:32.258Z,1.52
2019-05-28T14:12:00.543Z,1.30
2019-05-28T14:14:28.848Z,1.47
2019-05-28T14:16:57.099Z,1.70
2019-05-28T14:19:26.113Z,2.55
2019-05-28T14:21:55.081Z,1.80
2019-05-28T14:24:24.174Z,1.80
2019-05-28T14:26:53.029Z,1.30
2019-05-28T14:29:21.361Z,1.90
2019-05-28T14:31:49.626Z,1.60
2019-05-28T14:34:18.340Z,1.60
2019-05-28T14:36:47.262Z,1.62
2019-05-28T14:39:15.409Z,1.52
2019-05-28T14:41:45.066Z,1.80
2019-05-28T14:44:13.675Z,1.87
2019-05-28T14:46:41.893Z,2.08
2019-05-28T14:49:10.166Z,1.50
2019-05-28T14:51:38.426Z,2.30
2019-05-28T14:54:06.924Z,2.00
2019-05-28T14:56:35.423Z,1.60
2019-05-28T14:59:03.989Z,1.87
2019-05-28T15:01:32.880Z,2.00
2019-05-28T15:04:01.427Z,2.30
2019-05-28T15:06:30.391Z,2.12
2019-05-28T15:08:58.930Z,1.82
2019-05-28T15:11:27.171Z,1.87
2019-05-28T15:13:55.737Z,2.00
2019-05-28T15:16:24.210Z,1.60
2019-05-28T15:18:52.415Z,1.30
2019-05-28T15:21:20.805Z,1.52
2019-05-28T15:23:49.390Z,1.77
2019-05-28T15:26:17.762Z,1.60
2019-05-28T15:28:46.367Z,1.72
2019-05-28T15:31:14.972Z,1.60
2019-05-28T15:33:43.326Z,1.67
2019-05-28T15:36:11.760Z,1.77
2019-05-28T15:38:40.519Z,1.60
2019-05-28T15:41:09.598Z,23.02
2019-05-28T15:43:38.916Z,4.85
2019-05-28T15:46:07.414Z,1.30
2019-05-28T15:48:35.669Z,1.15
2019-05-28T15:51:05.098Z,1.20
2019-05-28T15:53:33.779Z,1.40
2019-05-28T15:56:02.662Z,1.30
2019-05-28T15:58:32.285Z,1.70
2019-05-28T16:01:00.589Z,1.10
2019-05-28T16:03:29.315Z,1.10
2019-05-28T16:05:58.008Z,1.15
2019-05-28T16:08:26.273Z,2.47
2019-05-28T16:10:55.179Z,1.50
2019-05-28T16:13:23.538Z,1.10
2019-05-28T16:15:52.494Z,1.10
2019-05-28T16:18:20.690Z,3.10
2019-05-28T16:20:49.178Z,1.12
2019-05-28T16:23:17.671Z,1.40
2019-05-28T16:25:46.345Z,7.30
2019-05-28T16:28:14.921Z,13.05
2019-05-28T16:30:43.881Z,9.85
2019-05-28T16:33:12.389Z,24.75
2019-05-28T16:35:40.795Z,2.25
2019-05-28T16:38:09.258Z,1.52
2019-05-28T16:40:37.534Z,1.32
2019-05-28T16:43:06.081Z,2.20
2019-05-28T16:45:35.337Z,3.15
2019-05-28T16:48:04.022Z,1.45
2019-05-28T16:50:32.703Z,1.40
2019-05-28T16:53:01.497Z,1.10
2019-05-28T16:55:30.072Z,1.90
2019-05-28T16:57:58.722Z,3.07
2019-05-28T17:00:27.258Z,2.08
2019-05-28T17:02:56.341Z,2.70
2019-05-28T17:05:24.875Z,2.33
2019-05-28T17:07:53.221Z,1.87
2019-05-28T17:10:32.471Z,1.72
2019-05-28T17:12:52.094Z,1.32
2019-05-28T17:15:20.463Z,2.67
2019-05-28T17:17:48.664Z,2.20
2019-05-28T17:20:17.515Z,2.20
2019-05-28T17:22:45.810Z,2.72
2019-05-28T17:25:14.363Z,9.63
2019-05-28T17:27:42.781Z,3.17
2019-05-28T17:30:19.156Z,2.60
2019-05-28T17:32:41.398Z,2.03
2019-05-28T17:35:10.480Z,2.60
2019-05-28T17:37:38.652Z,3.65
2019-05-28T17:40:07.354Z,5.62
2019-05-28T17:42:35.873Z,14.17
2019-05-28T17:45:07.552Z,17.35
2019-05-28T17:47:43.248Z,26.73
2019-05-28T17:50:08.188Z,11.53
2019-05-28T17:52:36.827Z,5.67
2019-05-28T17:55:05.586Z,25.77
2019-05-28T17:57:34.688Z,58.00
2019-05-28T18:00:03.139Z,39.93
2019-05-28T18:02:31.347Z,16.15
2019-05-28T18:04:59.863Z,11.77
2019-05-28T18:07:28.800Z,21.23
2019-05-28T18:09:57.275Z,15.23
2019-05-28T18:12:25.586Z,21.40
2019-05-28T18:14:54.109Z,17.27
2019-05-28T18:17:23.015Z,17.90
2019-05-28T18:19:51.265Z,22.50
2019-05-28T18:22:20.521Z,73.67
2019-05-28T18:24:48.765Z,39.33
2019-05-28T18:27:17.523Z,31.27
2019-05-28T18:29:45.946Z,11.27
2019-05-28T18:32:14.398Z,8.50
2019-05-28T18:34:42.814Z,8.23
2019-05-28T18:37:11.341Z,7.73
2019-05-28T18:39:39.999Z,6.70
2019-05-28T18:42:08.689Z,7.30
2019-05-28T18:44:37.437Z,7.70
2019-05-28T18:47:06.131Z,7.60
2019-05-28T18:49:35.282Z,6.40
2019-05-28T18:52:04.141Z,6.10
2019-05-28T18:54:32.592Z,5.00
2019-05-28T18:57:01.140Z,5.30
2019-05-28T18:59:29.597Z,5.60
2019-05-28T19:01:59.470Z,4.87
2019-05-28T19:04:28.419Z,5.50
2019-05-28T19:06:56.812Z,7.17
2019-05-28T19:15:02.897Z,7.90
2019-05-28T19:17:31.155Z,7.63
2019-05-28T19:19:59.769Z,8.07
2019-05-28T19:22:28.321Z,8.43
2019-05-28T19:24:57.504Z,7.90
2019-05-28T19:27:26.668Z,7.70
2019-05-28T19:29:55.015Z,5.87
2019-05-28T19:32:23.707Z,5.63
2019-05-28T19:34:52.664Z,7.60
2019-05-28T19:37:42.833Z,6.37
2019-05-28T19:39:56.095Z,12.67
2019-05-28T19:42:24.379Z,12.80
2019-05-28T19:44:55.988Z,24.83
2019-05-28T19:47:24.409Z,10.93
2019-05-28T19:49:53.013Z,10.90
2019-05-28T19:52:22.258Z,8.83
2019-05-28T19:54:50.996Z,7.60
2019-05-28T19:57:19.593Z,7.30
2019-05-28T19:59:47.860Z,7.00
2019-05-28T20:02:16.547Z,7.07
2019-05-28T20:04:44.972Z,5.33
2019-05-28T20:07:13.744Z,5.97
2019-05-28T20:09:42.435Z,5.83
2019-05-28T20:12:12.698Z,6.03
2019-05-28T20:14:41.330Z,6.50
2019-05-28T20:17:10.397Z,7.23
2019-05-28T20:19:38.602Z,9.43
2019-05-28T20:22:07.433Z,7.00
2019-05-28T20:24:36.579Z,7.97
2019-05-28T20:27:05.120Z,7.23
2019-05-28T20:29:33.351Z,7.47
2019-05-28T20:32:03.106Z,10.60
2019-05-28T20:34:33.930Z,13.10
2019-05-28T20:37:03.561Z,12.43
2019-05-28T20:39:32.537Z,11.33
2019-05-28T20:42:01.971Z,10.03
2019-05-28T20:44:30.632Z,10.87
2019-05-28T20:47:00.470Z,9.73
2019-05-28T20:49:29.157Z,12.27
2019-05-28T20:51:58.762Z,13.73
2019-05-28T20:54:28.323Z,13.97
2019-05-28T20:56:58.052Z,15.20
2019-05-28T20:59:27.244Z,14.87
2019-05-28T21:01:58.562Z,14.70
2019-05-28T21:04:27.270Z,13.33
2019-05-28T21:06:56.645Z,16.73
2019-05-28T21:09:26.759Z,25.70
2019-05-28T21:11:56.669Z,24.93
2019-05-28T21:14:25.702Z,155.27
2019-05-28T21:16:55.058Z,76.67
2019-05-28T21:19:23.401Z,37.07
2019-05-28T21:21:51.888Z,37.90
2019-05-28T21:24:20.591Z,52.30
2019-05-28T21:26:50.049Z,55.93
2019-05-28T21:29:18.823Z,35.23
2019-05-28T21:31:47.180Z,30.97
2019-05-28T21:34:15.579Z,27.30
2019-05-28T21:36:45.189Z,19.07
2019-05-28T21:39:13.455Z,16.00
2019-05-28T21:41:41.831Z,11.33
2019-05-28T21:44:10.292Z,9.77
2019-05-28T21:46:38.526Z,10.77
2019-05-28T21:49:07.285Z,12.07
2019-05-28T21:51:35.660Z,15.43
2019-05-28T21:54:04.228Z,16.80
2019-05-28T21:56:33.559Z,12.27
2019-05-28T21:59:02.168Z,12.40
2019-05-28T22:01:30.574Z,9.47
2019-05-28T22:03:59.478Z,9.40
2019-05-28T22:06:28.096Z,8.27
2019-05-28T22:08:57.754Z,10.60
2019-05-28T22:11:26.316Z,10.87
2019-05-28T22:13:56.022Z,13.90
2019-05-28T22:16:24.393Z,17.13
2019-05-28T22:18:52.566Z,9.43
2019-05-28T22:21:20.927Z,8.17
2019-05-28T22:23:49.491Z,11.37
2019-05-28T22:26:18.162Z,15.17
2019-05-28T22:28:47.029Z,12.53
2019-05-28T22:31:15.337Z,12.70
2019-05-28T22:33:43.884Z,12.87
2019-05-28T22:36:12.644Z,13.93
2019-05-28T22:38:41.241Z,13.63
2019-05-28T22:41:09.529Z,13.13
2019-05-28T22:43:38.062Z,13.07
2019-05-28T22:46:07.346Z,12.23
2019-05-28T22:48:35.722Z,13.33
2019-05-28T22:51:05.574Z,12.90
2019-05-28T22:53:34.406Z,13.97
2019-05-28T22:56:04.896Z,12.67
2019-05-28T22:58:33.708Z,13.00
2019-05-28T23:01:02.570Z,12.47
2019-05-28T23:03:31.284Z,13.47
2019-05-28T23:06:01.003Z,13.47
2019-05-28T23:08:29.384Z,13.33
2019-05-28T23:10:57.730Z,12.03
2019-05-28T23:13:26.258Z,11.70
2019-05-28T23:15:54.987Z,12.63
2019-05-28T23:18:23.815Z,12.17
2019-05-28T23:20:52.120Z,11.63
2019-05-28T23:23:20.598Z,11.23
2019-05-28T23:25:49.035Z,9.07
2019-05-28T23:28:17.289Z,9.60
2019-05-28T23:30:46.012Z,10.00
2019-05-28T23:33:14.506Z,9.50
2019-05-28T23:35:43.281Z,9.97
2019-05-28T23:38:11.741Z,9.60
2019-05-28T23:40:40.567Z,9.63
2019-05-28T23:43:09.496Z,10.13
2019-05-28T23:45:38.477Z,11.47
2019-05-28T23:48:12.819Z,11.40
2019-05-28T23:50:37.230Z,10.97
2019-05-28T23:53:05.688Z,11.40
2019-05-28T23:55:34.428Z,12.27
2019-05-28T23:58:02.990Z,11.90
